createdAt,value
2023-05-24T04:15:08.324Z,1016.12
2023-05-24T04:16:08.284Z,1016.18
2023-05-24T04:17:08.317Z,1016.15
2023-05-24T04:18:08.392Z,1016.17
2023-05-24T04:19:08.259Z,1016.15
2023-05-24T04:20:08.323Z,1016.14
2023-05-24T04:21:08.250Z,1016.14
2023-05-24T04:22:08.223Z,1016.13
2023-05-24T04:23:08.232Z,1016.14
2023-05-24T04:24:08.232Z,1016.15
2023-05-24T04:25:08.297Z,1016.18
2023-05-24T04:26:08.215Z,1016.19
2023-05-24T04:27:08.212Z,1016.20
2023-05-24T04:28:08.204Z,1016.22
2023-05-24T04:29:08.208Z,1016.24
2023-05-24T04:30:08.213Z,1016.22
2023-05-24T04:31:08.238Z,1016.22
2023-05-24T04:32:08.184Z,1016.21
2023-05-24T04:33:08.303Z,1016.24
2023-05-24T04:34:08.252Z,1016.23
2023-05-24T04:35:08.199Z,1016.23
2023-05-24T04:36:08.190Z,1016.23
2023-05-24T04:37:08.168Z,1016.20
2023-05-24T04:38:08.162Z,1016.19
2023-05-24T04:39:08.167Z,1016.23
2023-05-24T04:40:08.178Z,1016.23
2023-05-24T04:41:08.173Z,1016.24
2023-05-24T04:42:08.137Z,1016.27
2023-05-24T04:43:08.152Z,1016.25
2023-05-24T04:44:08.143Z,1016.25
2023-05-24T04:45:08.151Z,1016.21
2023-05-24T04:46:09.126Z,1016.19
2023-05-24T04:47:08.234Z,1016.15
2023-05-24T04:48:08.187Z,1016.13
2023-05-24T04:49:08.132Z,1016.10
2023-05-24T04:50:08.139Z,1016.13
2023-05-24T04:51:08.128Z,1016.21
2023-05-24T04:52:08.113Z,1016.21
2023-05-24T04:53:08.108Z,1016.20
2023-05-24T04:54:08.129Z,1016.22
2023-05-24T04:55:08.117Z,1016.16
2023-05-24T04:56:08.102Z,1016.21
2023-05-24T04:57:08.105Z,1016.21
2023-05-24T04:58:08.958Z,1016.22
2023-05-24T04:59:08.086Z,1016.22
2023-05-24T05:00:08.107Z,1016.22
2023-05-24T05:01:08.091Z,1016.28
2023-05-24T05:02:08.121Z,1016.25
2023-05-24T05:03:08.235Z,1016.24
2023-05-24T05:04:08.170Z,1016.26
2023-05-24T05:05:08.074Z,1016.23
2023-05-24T05:06:08.091Z,1016.25
2023-05-24T05:07:08.108Z,1016.22
2023-05-24T05:08:08.074Z,1016.27
2023-05-24T05:09:09.077Z,1016.30
2023-05-24T05:10:08.071Z,1016.28
2023-05-24T05:11:08.059Z,1016.27
2023-05-24T05:12:08.042Z,1016.28
2023-05-24T05:13:08.055Z,1016.27
2023-05-24T05:14:08.029Z,1016.28
2023-05-24T05:15:08.046Z,1016.25
2023-05-24T05:16:08.073Z,1016.26
2023-05-24T05:17:08.048Z,1016.25
2023-05-24T05:18:08.107Z,1016.25
2023-05-24T05:19:08.042Z,1016.25
2023-05-24T05:20:08.056Z,1016.25
2023-05-24T05:21:08.043Z,1016.26
2023-05-24T05:22:08.003Z,1016.27
2023-05-24T05:23:08.026Z,1016.33
2023-05-24T05:24:08.001Z,1016.32
2023-05-24T05:25:08.007Z,1016.30
2023-05-24T05:26:08.016Z,1016.27
2023-05-24T05:27:08.006Z,1016.31
2023-05-24T05:28:07.992Z,1016.33
2023-05-24T05:29:07.998Z,1016.34
2023-05-24T05:30:07.986Z,1016.36
2023-05-24T05:31:07.982Z,1016.32
2023-05-24T05:32:08.016Z,1016.38
2023-05-24T05:33:08.067Z,1016.36
2023-05-24T05:34:07.978Z,1016.38
2023-05-24T05:35:08.006Z,1016.36
2023-05-24T05:36:07.987Z,1016.39
2023-05-24T05:37:07.997Z,1016.39
2023-05-24T05:38:07.964Z,1016.40
2023-05-24T05:39:07.970Z,1016.40
2023-05-24T05:40:07.964Z,1016.38
2023-05-24T05:41:07.955Z,1016.45
2023-05-24T05:42:07.973Z,1016.42
2023-05-24T05:43:07.947Z,1016.43
2023-05-24T05:44:07.975Z,1016.44
2023-05-24T05:45:07.944Z,1016.43
2023-05-24T05:46:08.004Z,1016.47
2023-05-24T05:47:08.189Z,1016.47
2023-05-24T05:48:08.026Z,1016.43
2023-05-24T05:49:07.936Z,1016.44
2023-05-24T05:50:07.935Z,1016.43
2023-05-24T05:51:07.948Z,1016.42
2023-05-24T05:52:08.027Z,1016.39
2023-05-24T05:53:07.939Z,1016.39
2023-05-24T05:54:07.948Z,1016.39
2023-05-24T05:55:07.946Z,1016.39
2023-05-24T05:56:07.989Z,1016.46
2023-05-24T05:57:07.970Z,1016.44
2023-05-24T05:58:07.932Z,1016.42
2023-05-24T05:59:07.935Z,1016.48
2023-05-24T06:00:08.310Z,1016.48
2023-05-24T06:01:07.932Z,1016.49
2023-05-24T06:02:08.050Z,1016.47
2023-05-24T06:03:08.076Z,1016.52
2023-05-24T06:04:08.102Z,1016.51
2023-05-24T06:05:07.888Z,1016.55
2023-05-24T06:06:07.922Z,1016.52
2023-05-24T06:07:07.931Z,1016.56
2023-05-24T06:08:07.932Z,1016.55
2023-05-24T06:09:07.885Z,1016.55
2023-05-24T06:10:07.905Z,1016.55
2023-05-24T06:11:07.897Z,1016.51
2023-05-24T06:12:07.872Z,1016.57
2023-05-24T06:13:07.952Z,1016.60
2023-05-24T06:14:07.880Z,1016.56
2023-05-24T06:15:07.859Z,1016.64
2023-05-24T06:16:07.921Z,1016.59
2023-05-24T06:17:07.885Z,1016.59
2023-05-24T06:18:07.862Z,1016.55
2023-05-24T06:19:07.857Z,1016.52
2023-05-24T06:20:07.904Z,1016.47
2023-05-24T06:21:08.012Z,1016.51
2023-05-24T06:22:07.883Z,1016.51
2023-05-24T06:23:07.988Z,1016.46
2023-05-24T06:24:07.842Z,1016.51
2023-05-24T06:25:07.843Z,1016.52
2023-05-24T06:26:07.905Z,1016.56
2023-05-24T06:27:08.683Z,1016.60
2023-05-24T06:28:07.825Z,1016.60
2023-05-24T06:29:07.908Z,1016.59
2023-05-24T06:30:07.871Z,1016.54
2023-05-24T06:31:07.922Z,1016.57
2023-05-24T06:32:07.849Z,1016.55
2023-05-24T06:33:07.920Z,1016.60
2023-05-24T06:34:07.841Z,1016.63
2023-05-24T06:35:07.887Z,1016.64
2023-05-24T06:36:07.825Z,1016.61
2023-05-24T06:37:07.808Z,1016.60
2023-05-24T06:38:07.855Z,1016.61
2023-05-24T06:39:07.834Z,1016.64
2023-05-24T06:40:07.819Z,1016.61
2023-05-24T06:41:07.825Z,1016.63
2023-05-24T06:42:07.872Z,1016.62
2023-05-24T06:43:07.908Z,1016.63
2023-05-24T06:44:07.810Z,1016.65
2023-05-24T06:45:07.781Z,1016.69
2023-05-24T06:46:07.797Z,1016.66
2023-05-24T06:49:40.433Z,1016.75
2023-05-24T06:50:41.737Z,1016.76
2023-05-24T06:51:40.326Z,1016.81
2023-05-24T06:52:40.317Z,1016.82
2023-05-24T06:53:40.370Z,1016.76
2023-05-24T06:54:40.377Z,1016.77
2023-05-24T06:55:40.307Z,1016.75
2023-05-24T06:56:40.409Z,1016.76
2023-05-24T06:57:40.315Z,1016.82
2023-05-24T06:58:40.363Z,1016.79
2023-05-24T06:59:40.361Z,1016.83
2023-05-24T07:00:40.439Z,1016.82
2023-05-24T07:02:40.385Z,1016.83
2023-05-24T07:03:40.298Z,1016.84
2023-05-24T07:04:40.379Z,1016.84
2023-05-24T07:05:40.370Z,1016.83
2023-05-24T07:06:40.311Z,1016.86
2023-05-24T07:07:40.352Z,1016.87
2023-05-24T07:08:40.342Z,1016.87
2023-05-24T07:09:40.363Z,1016.89
2023-05-24T07:10:41.042Z,1016.85
2023-05-24T07:11:40.358Z,1016.89
2023-05-24T07:12:40.280Z,1016.86
2023-05-24T07:13:40.315Z,1016.85
2023-05-24T07:14:40.275Z,1016.88
2023-05-24T07:15:40.332Z,1016.88
2023-05-24T07:16:40.348Z,1016.87
2023-05-24T07:17:40.384Z,1016.90
2023-05-24T07:18:40.311Z,1016.89
2023-05-24T07:19:40.267Z,1016.93
2023-05-24T07:20:40.668Z,1016.97
2023-05-24T07:21:40.289Z,1016.96
2023-05-24T07:22:40.318Z,1016.97
2023-05-24T07:23:40.284Z,1016.97
2023-05-24T07:24:40.273Z,1016.99
2023-05-24T07:25:40.291Z,1016.99
2023-05-24T07:26:40.325Z,1016.98
2023-05-24T07:27:40.362Z,1016.97
2023-05-24T07:28:40.320Z,1016.91
2023-05-24T07:29:40.320Z,1016.92
2023-05-24T07:30:40.436Z,1016.89
2023-05-24T07:31:40.419Z,1016.88
2023-05-24T07:32:40.474Z,1016.92
2023-05-24T07:33:40.429Z,1016.93
2023-05-24T07:34:40.350Z,1016.95
2023-05-24T07:35:40.316Z,1016.99
2023-05-24T07:36:40.284Z,1016.96
2023-05-24T07:37:40.263Z,1016.97
2023-05-24T07:38:40.440Z,1016.90
2023-05-24T07:39:40.251Z,1016.92
2023-05-24T07:40:40.479Z,1016.95
2023-05-24T07:41:40.333Z,1017.00
2023-05-24T07:42:40.271Z,1017.01
2023-05-24T07:43:40.292Z,1017.01
2023-05-24T07:44:40.339Z,1016.99
2023-05-24T07:45:40.357Z,1016.96
2023-05-24T07:46:40.866Z,1016.91
2023-05-24T07:47:40.293Z,1016.92
2023-05-24T07:48:40.414Z,1016.87
2023-05-24T07:49:40.252Z,1016.86
2023-05-24T07:50:40.480Z,1016.86
2023-05-24T07:51:40.266Z,1016.84
2023-05-24T07:52:40.233Z,1016.82
2023-05-24T07:53:40.281Z,1016.85
2023-05-24T07:54:40.272Z,1016.86
2023-05-24T07:55:40.393Z,1016.88
2023-05-24T07:56:40.336Z,1016.89
2023-05-24T07:57:40.834Z,1016.90
2023-05-24T07:58:40.259Z,1016.92
2023-05-24T07:59:40.217Z,1016.96
2023-05-24T08:00:40.229Z,1017.01
2023-05-24T08:01:40.222Z,1017.00
2023-05-24T08:02:40.346Z,1017.03
2023-05-24T08:03:40.325Z,1017.01
2023-05-24T08:04:40.333Z,1017.04
2023-05-24T08:05:40.350Z,1017.04
2023-05-24T08:06:40.292Z,1017.06
2023-05-24T08:07:40.234Z,1017.06
2023-05-24T08:08:40.281Z,1017.05
2023-05-24T08:09:40.230Z,1017.02
2023-05-24T08:10:40.199Z,1017.02
2023-05-24T08:11:40.257Z,1017.01
2023-05-24T08:12:40.184Z,1017.02
2023-05-24T08:13:40.179Z,1017.08
2023-05-24T08:15:40.392Z,1017.06
2023-05-24T08:16:40.290Z,1017.10
2023-05-24T08:17:40.237Z,1017.12
2023-05-24T08:18:40.202Z,1017.13
2023-05-24T08:19:40.235Z,1017.16
2023-05-24T08:20:40.296Z,1017.14
2023-05-24T08:21:40.171Z,1017.11
2023-05-24T08:22:40.191Z,1017.09
2023-05-24T08:23:40.235Z,1017.11
2023-05-24T08:24:40.225Z,1017.10
2023-05-24T08:25:40.200Z,1017.08
2023-05-24T08:26:40.167Z,1017.09
2023-05-24T08:27:40.164Z,1017.10
2023-05-24T08:28:40.251Z,1017.12
2023-05-24T08:29:40.182Z,1017.14
2023-05-24T08:30:40.212Z,1017.12
2023-05-24T08:31:40.218Z,1017.10
2023-05-24T08:32:40.193Z,1017.10
2023-05-24T08:33:40.175Z,1017.07
2023-05-24T08:34:40.169Z,1017.09
2023-05-24T08:35:40.386Z,1017.09
2023-05-24T08:36:40.140Z,1017.12
2023-05-24T08:37:41.203Z,1017.13
2023-05-24T08:38:40.161Z,1017.16
2023-05-24T08:39:40.140Z,1017.18
2023-05-24T08:40:40.222Z,1017.17
2023-05-24T08:41:40.178Z,1017.19
2023-05-24T08:42:40.178Z,1017.19
2023-05-24T08:43:40.141Z,1017.19
2023-05-24T08:44:40.128Z,1017.20
2023-05-24T08:45:40.257Z,1017.21
2023-05-24T08:46:40.270Z,1017.20
2023-05-24T08:47:40.226Z,1017.19
2023-05-24T08:48:40.229Z,1017.17
2023-05-24T08:49:40.130Z,1017.12
2023-05-24T08:50:40.186Z,1017.13
2023-05-24T08:51:40.394Z,1017.15
2023-05-24T08:52:40.239Z,1017.16
2023-05-24T08:53:40.119Z,1017.15
2023-05-24T08:54:40.108Z,1017.16
2023-05-24T08:55:40.307Z,1017.18
2023-05-24T08:56:40.118Z,1017.18
2023-05-24T08:57:40.202Z,1017.22
2023-05-24T08:58:40.141Z,1017.19
2023-05-24T08:59:40.098Z,1017.19
2023-05-24T09:00:40.087Z,1017.25
2023-05-24T09:01:40.105Z,1017.25
2023-05-24T09:02:40.167Z,1017.21
2023-05-24T09:03:40.433Z,1017.19
2023-05-24T09:04:40.097Z,1017.19
2023-05-24T09:05:40.325Z,1017.22
2023-05-24T09:06:40.126Z,1017.18
2023-05-24T09:07:40.092Z,1017.18
2023-05-24T09:08:41.776Z,1017.21
2023-05-24T09:09:40.070Z,1017.26
2023-05-24T09:10:53.168Z,1017.26
2023-05-24T09:11:40.188Z,1017.25
2023-05-24T09:12:40.055Z,1017.27
2023-05-24T09:13:40.141Z,1017.26
2023-05-24T09:14:40.089Z,1017.25
2023-05-24T09:15:40.168Z,1017.24
2023-05-24T09:16:40.255Z,1017.24
2023-05-24T09:17:42.191Z,1017.20
2023-05-24T09:18:40.047Z,1017.27
2023-05-24T09:19:40.105Z,1017.27
2023-05-24T09:20:40.168Z,1017.30
2023-05-24T09:21:40.033Z,1017.22
2023-05-24T09:22:41.569Z,1017.28
2023-05-24T09:23:40.048Z,1017.25
2023-05-24T09:24:40.051Z,1017.31
2023-05-24T09:25:40.051Z,1017.28
2023-05-24T09:26:40.058Z,1017.23
2023-05-24T09:27:40.097Z,1017.29
2023-05-24T09:31:12.955Z,1017.32
2023-05-24T09:32:12.774Z,1017.29
2023-05-24T09:33:12.789Z,1017.34
2023-05-24T09:34:12.679Z,1017.31
2023-05-24T09:35:12.793Z,1017.30
2023-05-24T09:36:12.675Z,1017.32
2023-05-24T09:37:12.706Z,1017.31
2023-05-24T09:38:12.734Z,1017.28
2023-05-24T09:39:12.658Z,1017.29
2023-05-24T09:40:12.707Z,1017.33
2023-05-24T09:41:12.657Z,1017.29
2023-05-24T09:42:12.652Z,1017.32
2023-05-24T09:43:12.730Z,1017.29
2023-05-24T09:44:12.893Z,1017.31
2023-05-24T09:45:12.739Z,1017.30
2023-05-24T09:46:12.652Z,1017.30
2023-05-24T09:47:12.914Z,1017.28
2023-05-24T09:48:12.833Z,1017.33
2023-05-24T09:49:12.645Z,1017.38
2023-05-24T09:50:12.663Z,1017.38
2023-05-24T09:51:12.873Z,1017.39
2023-05-24T09:52:12.636Z,1017.31
2023-05-24T09:53:12.677Z,1017.38
2023-05-24T09:54:12.641Z,1017.37
2023-05-24T09:55:12.667Z,1017.36
2023-05-24T09:56:12.629Z,1017.37
2023-05-24T09:57:12.620Z,1017.39
2023-05-24T09:58:12.637Z,1017.36
2023-05-24T09:59:12.631Z,1017.38
2023-05-24T10:00:12.690Z,1017.37
2023-05-24T10:01:12.668Z,1017.37
2023-05-24T10:02:12.657Z,1017.33
2023-05-24T10:03:13.166Z,1017.32
2023-05-24T10:04:12.650Z,1017.37
2023-05-24T10:05:12.630Z,1017.37
2023-05-24T10:06:12.623Z,1017.38
2023-05-24T10:07:12.642Z,1017.41
2023-05-24T10:08:12.615Z,1017.34
2023-05-24T10:09:12.627Z,1017.35
2023-05-24T10:10:12.587Z,1017.36
2023-05-24T10:11:12.602Z,1017.36
2023-05-24T10:12:12.617Z,1017.34
2023-05-24T10:13:12.602Z,1017.37
2023-05-24T10:14:12.656Z,1017.35
2023-05-24T10:15:12.594Z,1017.31
2023-05-24T10:17:12.610Z,1017.32
2023-05-24T10:18:14.174Z,1017.35
2023-05-24T10:29:36.191Z,1017.36
2023-05-24T10:30:35.967Z,1017.34
2023-05-24T10:31:36.224Z,1017.35
2023-05-24T10:32:35.994Z,1017.34
2023-05-24T10:33:36.215Z,1017.31
2023-05-24T10:34:35.947Z,1017.32
2023-05-24T10:35:35.921Z,1017.30
2023-05-24T10:36:35.951Z,1017.32
2023-05-24T10:37:35.961Z,1017.32
2023-05-24T10:38:35.922Z,1017.32
2023-05-24T10:39:35.975Z,1017.36
2023-05-24T10:40:35.912Z,1017.31
2023-05-24T10:41:35.917Z,1017.36
2023-05-24T10:42:35.928Z,1017.27
2023-05-24T10:43:35.896Z,1017.28
2023-05-24T10:44:35.900Z,1017.29
2023-05-24T10:45:36.193Z,1017.27
2023-05-24T10:46:35.955Z,1017.29
2023-05-24T10:47:38.338Z,1017.31
2023-05-24T10:48:35.924Z,1017.33
2023-05-24T10:49:35.885Z,1017.33
2023-05-24T10:50:35.958Z,1017.37
2023-05-24T10:51:35.900Z,1017.31
2023-05-24T10:52:35.889Z,1017.31
2023-05-24T10:53:35.931Z,1017.31
2023-05-24T10:54:35.882Z,1017.32
2023-05-24T10:55:35.898Z,1017.29
2023-05-24T10:56:35.880Z,1017.26
2023-05-24T10:57:35.873Z,1017.29
2023-05-24T10:58:35.865Z,1017.25
2023-05-24T10:59:35.864Z,1017.30
2023-05-24T11:00:36.316Z,1017.26
2023-05-24T11:01:36.168Z,1017.24
2023-05-24T11:02:35.954Z,1017.26
2023-05-24T11:03:35.880Z,1017.24
2023-05-24T11:05:35.860Z,1017.27
2023-05-24T11:06:35.866Z,1017.24
2023-05-24T11:07:35.896Z,1017.23
2023-05-24T11:08:35.993Z,1017.25
2023-05-24T11:09:35.868Z,1017.27
2023-05-24T11:10:35.877Z,1017.27
2023-05-24T11:11:35.952Z,1017.31
2023-05-24T11:12:35.925Z,1017.34
2023-05-24T11:13:35.959Z,1017.27
2023-05-24T11:14:36.243Z,1017.27
2023-05-24T11:15:37.178Z,1017.28
2023-05-24T11:16:38.527Z,1017.27
2023-05-24T11:17:35.978Z,1017.24
2023-05-24T11:18:35.864Z,1017.28
2023-05-24T11:19:35.876Z,1017.24
2023-05-24T11:20:35.925Z,1017.24
2023-05-24T11:21:35.839Z,1017.26
2023-05-24T11:22:35.884Z,1017.21
2023-05-24T11:23:38.111Z,1017.26
2023-05-24T11:24:35.880Z,1017.25
2023-05-24T11:25:35.883Z,1017.23
2023-05-24T11:26:36.243Z,1017.20
2023-05-24T11:27:35.830Z,1017.22
2023-05-24T11:28:35.880Z,1017.21
2023-05-24T11:29:38.184Z,1017.22
2023-05-24T11:30:35.817Z,1017.20
2023-05-24T11:31:37.960Z,1017.20
2023-05-24T11:32:35.852Z,1017.16
2023-05-24T11:33:35.856Z,1017.21
2023-05-24T11:34:35.873Z,1017.20
2023-05-24T11:35:35.822Z,1017.23
2023-05-24T11:36:35.819Z,1017.21
2023-05-24T11:37:46.046Z,1017.25
2023-05-24T11:38:35.809Z,1017.24
2023-05-24T11:39:35.819Z,1017.28
2023-05-24T11:40:35.853Z,1017.26
2023-05-24T11:41:35.862Z,1017.22
2023-05-24T11:42:35.826Z,1017.22
2023-05-24T11:43:35.827Z,1017.23
2023-05-24T11:44:35.810Z,1017.22
2023-05-24T11:45:35.823Z,1017.21
2023-05-24T11:46:35.817Z,1017.19
2023-05-24T11:47:35.879Z,1017.20
2023-05-24T11:48:35.837Z,1017.25
2023-05-24T11:49:35.962Z,1017.18
2023-05-24T11:50:45.733Z,1017.20
2023-05-24T11:51:35.831Z,1017.22
2023-05-24T11:52:35.806Z,1017.24
2023-05-24T11:53:35.812Z,1017.25
2023-05-24T11:54:35.800Z,1017.24
2023-05-24T11:55:35.803Z,1017.20
2023-05-24T11:56:36.712Z,1017.22
2023-05-24T11:57:35.829Z,1017.23
2023-05-24T11:58:35.817Z,1017.23
2023-05-24T11:59:35.827Z,1017.24
2023-05-24T12:00:35.801Z,1017.24
2023-05-24T12:01:35.788Z,1017.26
2023-05-24T12:02:35.972Z,1017.22
2023-05-24T12:03:35.999Z,1017.24
2023-05-24T12:04:35.854Z,1017.22
2023-05-24T12:05:35.837Z,1017.23
2023-05-24T12:06:35.782Z,1017.24
2023-05-24T12:07:35.791Z,1017.22
2023-05-24T12:08:35.795Z,1017.23
2023-05-24T12:09:35.801Z,1017.25
2023-05-24T12:10:35.827Z,1017.24
2023-05-24T12:11:35.794Z,1017.21
2023-05-24T12:12:45.413Z,1017.27
2023-05-24T12:13:35.775Z,1017.26
2023-05-24T12:14:35.779Z,1017.26
2023-05-24T12:15:35.793Z,1017.23
2023-05-24T12:16:35.866Z,1017.27
2023-05-24T12:17:35.771Z,1017.25
2023-05-24T12:18:35.759Z,1017.29
2023-05-24T12:19:36.133Z,1017.29
2023-05-24T12:20:35.797Z,1017.29
2023-05-24T12:21:35.811Z,1017.27
2023-05-24T12:22:35.763Z,1017.32
2023-05-24T12:23:35.756Z,1017.34
2023-05-24T12:24:35.907Z,1017.29
2023-05-24T12:25:35.760Z,1017.32
2023-05-24T12:26:35.748Z,1017.31
2023-05-24T12:27:35.776Z,1017.30
2023-05-24T12:28:35.741Z,1017.35
2023-05-24T12:29:35.761Z,1017.33
2023-05-24T12:30:35.737Z,1017.35
2023-05-24T12:31:35.947Z,1017.33
2023-05-24T12:32:35.805Z,1017.33
2023-05-24T12:33:35.734Z,1017.32
2023-05-24T12:34:35.743Z,1017.34
2023-05-24T12:35:35.757Z,1017.32
2023-05-24T12:36:35.746Z,1017.34
2023-05-24T12:37:35.766Z,1017.31
2023-05-24T12:38:35.748Z,1017.32
2023-05-24T12:39:35.733Z,1017.35
2023-05-24T12:40:35.755Z,1017.35
2023-05-24T12:41:35.753Z,1017.30
2023-05-24T12:42:35.728Z,1017.35
2023-05-24T12:43:35.759Z,1017.35
2023-05-24T12:44:35.730Z,1017.35
2023-05-24T12:45:35.722Z,1017.38
2023-05-24T12:46:35.818Z,1017.38
2023-05-24T12:47:35.794Z,1017.40
2023-05-24T12:48:35.705Z,1017.38
2023-05-24T12:49:35.799Z,1017.36
2023-05-24T12:50:35.701Z,1017.37
2023-05-24T12:51:35.704Z,1017.35
2023-05-24T12:52:35.717Z,1017.33
2023-05-24T12:53:35.713Z,1017.33
2023-05-24T12:54:35.732Z,1017.32
2023-05-24T12:55:35.747Z,1017.32
2023-05-24T12:56:35.696Z,1017.29
2023-05-24T12:57:35.699Z,1017.30
2023-05-24T12:58:35.711Z,1017.31
2023-05-24T12:59:35.718Z,1017.29
2023-05-24T13:00:35.712Z,1017.31
2023-05-24T13:01:35.795Z,1017.27
2023-05-24T13:02:36.976Z,1017.32
2023-05-24T13:03:35.680Z,1017.30
2023-05-24T13:04:35.697Z,1017.26
2023-05-24T13:05:35.723Z,1017.28
2023-05-24T13:06:35.677Z,1017.27
2023-05-24T13:07:35.677Z,1017.29
2023-05-24T13:08:36.654Z,1017.32
2023-05-24T13:09:35.714Z,1017.30
2023-05-24T13:10:35.706Z,1017.31
2023-05-24T13:11:35.668Z,1017.27
2023-05-24T13:12:35.668Z,1017.34
2023-05-24T13:13:35.699Z,1017.35
2023-05-24T13:14:35.692Z,1017.35
2023-05-24T13:15:35.663Z,1017.35
2023-05-24T13:16:35.788Z,1017.37
2023-05-24T13:17:35.737Z,1017.38
2023-05-24T13:18:35.713Z,1017.39
2023-05-24T13:19:35.681Z,1017.37
2023-05-24T13:20:35.719Z,1017.42
2023-05-24T13:21:35.669Z,1017.42
2023-05-24T13:22:35.695Z,1017.36
2023-05-24T13:23:35.665Z,1017.39
2023-05-24T13:24:35.639Z,1017.40
2023-05-24T13:25:35.671Z,1017.40
2023-05-24T13:26:35.630Z,1017.40
2023-05-24T13:27:35.640Z,1017.41
2023-05-24T13:28:35.698Z,1017.41
2023-05-24T13:29:45.579Z,1017.42
2023-05-24T13:30:35.698Z,1017.38
2023-05-24T13:31:35.697Z,1017.40
2023-05-24T13:32:35.651Z,1017.39
2023-05-24T13:33:35.624Z,1017.40
2023-05-24T13:34:35.692Z,1017.37
2023-05-24T13:35:35.638Z,1017.39
2023-05-24T13:36:35.621Z,1017.37
2023-05-24T13:37:35.626Z,1017.34
2023-05-24T13:38:35.607Z,1017.35
2023-05-24T13:39:35.634Z,1017.31
2023-05-24T13:40:35.626Z,1017.31
2023-05-24T13:41:35.699Z,1017.31
2023-05-24T13:42:35.681Z,1017.32
2023-05-24T13:43:35.600Z,1017.31
2023-05-24T13:44:35.622Z,1017.32
2023-05-24T13:45:35.591Z,1017.34
2023-05-24T13:46:35.719Z,1017.27
2023-05-24T13:47:39.819Z,1017.30
2023-05-24T13:48:35.672Z,1017.29
2023-05-24T13:49:35.590Z,1017.30
2023-05-24T13:50:35.585Z,1017.31
2023-05-24T13:51:35.587Z,1017.32
2023-05-24T13:52:35.593Z,1017.30
2023-05-24T13:53:35.580Z,1017.29
2023-05-24T13:54:35.597Z,1017.34
2023-05-24T13:55:35.574Z,1017.32
2023-05-24T13:56:35.750Z,1017.30
2023-05-24T13:57:50.543Z,1017.28
2023-05-24T13:58:35.578Z,1017.28
2023-05-24T13:59:35.578Z,1017.27
2023-05-24T14:00:35.563Z,1017.28
2023-05-24T14:01:35.604Z,1017.27
2023-05-24T14:02:35.646Z,1017.21
2023-05-24T14:03:35.560Z,1017.23
2023-05-24T14:04:35.582Z,1017.23
2023-05-24T14:05:35.657Z,1017.20
2023-05-24T14:06:35.567Z,1017.19
2023-05-24T14:07:35.639Z,1017.25
2023-05-24T14:08:35.579Z,1017.29
2023-05-24T14:09:35.541Z,1017.26
2023-05-24T14:10:35.554Z,1017.26
2023-05-24T14:11:35.540Z,1017.25
2023-05-24T14:12:35.558Z,1017.28
2023-05-24T14:14:57.998Z,1017.29
2023-05-24T14:15:35.566Z,1017.26
2023-05-24T14:16:35.576Z,1017.30
2023-05-24T14:17:35.567Z,1017.29
2023-05-24T14:18:35.543Z,1017.30
2023-05-24T14:19:35.528Z,1017.31
2023-05-24T14:20:35.600Z,1017.30
2023-05-24T14:21:35.512Z,1017.33
2023-05-24T14:22:35.538Z,1017.31
2023-05-24T14:23:35.523Z,1017.32
2023-05-24T14:24:35.549Z,1017.34
2023-05-24T14:25:35.526Z,1017.34
2023-05-24T14:26:35.506Z,1017.35
2023-05-24T14:27:35.522Z,1017.34
2023-05-24T14:28:35.518Z,1017.33
2023-05-24T14:29:35.519Z,1017.35
2023-05-24T14:30:35.516Z,1017.32
2023-05-24T14:31:35.522Z,1017.30
2023-05-24T14:32:35.536Z,1017.35
2023-05-24T14:33:35.527Z,1017.36
2023-05-24T14:34:35.498Z,1017.37
2023-05-24T14:35:35.497Z,1017.37
2023-05-24T14:36:35.516Z,1017.35
2023-05-24T14:37:35.514Z,1017.34
2023-05-24T14:38:35.498Z,1017.36
2023-05-24T14:39:35.485Z,1017.35
2023-05-24T14:40:35.536Z,1017.31
2023-05-24T14:41:35.510Z,1017.31
2023-05-24T14:42:35.485Z,1017.33
2023-05-24T14:43:35.488Z,1017.35
2023-05-24T14:44:35.480Z,1017.31
2023-05-24T14:45:35.642Z,1017.32
2023-05-24T14:46:35.526Z,1017.34
2023-05-24T14:47:35.486Z,1017.33
2023-05-24T14:48:35.499Z,1017.30
2023-05-24T14:49:35.467Z,1017.33
2023-05-24T14:50:35.468Z,1017.30
2023-05-24T14:51:35.476Z,1017.29
2023-05-24T14:52:35.466Z,1017.32
2023-05-24T14:53:35.475Z,1017.32
2023-05-24T14:54:35.464Z,1017.30
2023-05-24T14:55:35.460Z,1017.33
2023-05-24T14:56:35.470Z,1017.33
2023-05-24T14:57:35.491Z,1017.32
2023-05-24T14:58:35.458Z,1017.34
2023-05-24T14:59:35.456Z,1017.34
2023-05-24T15:00:35.463Z,1017.35
2023-05-24T15:01:35.527Z,1017.36
2023-05-24T15:02:35.572Z,1017.36
2023-05-24T15:03:35.614Z,1017.36
2023-05-24T15:04:35.443Z,1017.34
2023-05-24T15:05:35.451Z,1017.36
2023-05-24T15:06:35.539Z,1017.36
2023-05-24T15:07:35.446Z,1017.34
2023-05-24T15:08:35.455Z,1017.40
2023-05-24T15:09:35.440Z,1017.37
2023-05-24T15:10:35.433Z,1017.36
2023-05-24T15:11:35.439Z,1017.38
2023-05-24T15:12:36.396Z,1017.34
2023-05-24T15:13:35.444Z,1017.33
2023-05-24T15:14:35.428Z,1017.32
2023-05-24T15:15:35.425Z,1017.32
2023-05-24T15:16:35.475Z,1017.36
2023-05-24T15:17:35.453Z,1017.33
2023-05-24T15:18:35.435Z,1017.36
2023-05-24T15:19:35.457Z,1017.31
2023-05-24T15:20:36.030Z,1017.33
2023-05-24T15:21:35.444Z,1017.32
2023-05-24T15:22:35.425Z,1017.32
2023-05-24T15:23:35.422Z,1017.31
2023-05-24T15:24:35.416Z,1017.31
2023-05-24T15:25:35.423Z,1017.28
2023-05-24T15:26:35.431Z,1017.33
2023-05-24T15:27:35.412Z,1017.39
2023-05-24T15:28:35.417Z,1017.41
2023-05-24T15:29:35.406Z,1017.39
2023-05-24T15:30:35.417Z,1017.41
2023-05-24T15:31:35.552Z,1017.39
2023-05-24T15:32:35.424Z,1017.42
2023-05-24T15:33:35.440Z,1017.42
2023-05-24T15:34:35.421Z,1017.45
2023-05-24T15:35:35.404Z,1017.47
2023-05-24T15:36:35.421Z,1017.46
2023-05-24T15:37:35.406Z,1017.43
2023-05-24T15:38:35.410Z,1017.43
2023-05-24T15:39:35.407Z,1017.44
2023-05-24T15:40:35.399Z,1017.49
2023-05-24T15:41:35.535Z,1017.44
2023-05-24T15:42:35.393Z,1017.45
2023-05-24T15:43:35.409Z,1017.46
2023-05-24T15:44:35.403Z,1017.44
2023-05-24T15:45:35.402Z,1017.46
2023-05-24T15:46:35.479Z,1017.46
2023-05-24T15:47:35.462Z,1017.44
2023-05-24T15:48:35.413Z,1017.44
2023-05-24T15:49:35.453Z,1017.39
2023-05-24T15:50:54.042Z,1017.39
2023-05-24T15:52:02.607Z,1017.38
2023-05-24T15:52:35.404Z,1017.42
2023-05-24T15:53:35.420Z,1017.37
2023-05-24T15:54:35.399Z,1017.38
2023-05-24T15:55:35.383Z,1017.37
2023-05-24T15:56:35.391Z,1017.40
2023-05-24T15:57:35.383Z,1017.39
2023-05-24T15:58:35.415Z,1017.41
2023-05-24T15:59:35.415Z,1017.42
2023-05-24T16:00:35.377Z,1017.44
2023-05-24T16:01:35.496Z,1017.41
2023-05-24T16:02:35.437Z,1017.43
2023-05-24T16:03:35.462Z,1017.39
2023-05-24T16:04:35.382Z,1017.38
2023-05-24T16:05:35.457Z,1017.36
2023-05-24T16:06:35.384Z,1017.35
2023-05-24T16:07:35.400Z,1017.40
2023-05-24T16:08:35.357Z,1017.41
2023-05-24T16:09:35.385Z,1017.42
2023-05-24T16:10:35.373Z,1017.42
2023-05-24T16:11:35.376Z,1017.40
2023-05-24T16:12:35.375Z,1017.44
2023-05-24T16:13:35.358Z,1017.39
2023-05-24T16:14:35.376Z,1017.42
2023-05-24T16:15:35.357Z,1017.40
2023-05-24T16:16:35.429Z,1017.41
2023-05-24T16:28:49.616Z,1017.49
2023-05-24T16:29:49.583Z,1017.44
2023-05-24T16:30:49.586Z,1017.45
2023-05-24T16:31:49.609Z,1017.41
2023-05-24T16:32:49.618Z,1017.36
2023-05-24T16:33:49.560Z,1017.37
2023-05-24T16:34:56.753Z,1017.37
2023-05-24T16:35:49.547Z,1017.33
2023-05-24T16:36:49.552Z,1017.34
2023-05-24T16:37:49.544Z,1017.32
2023-05-24T16:38:49.545Z,1017.32
2023-05-24T16:39:49.545Z,1017.30
2023-05-24T16:40:49.538Z,1017.29
2023-05-24T16:41:49.549Z,1017.30
2023-05-24T16:42:49.553Z,1017.29
2023-05-24T16:43:49.534Z,1017.30
2023-05-24T16:44:49.540Z,1017.34
2023-05-24T16:45:49.598Z,1017.29
2023-05-24T16:46:49.571Z,1017.29
2023-05-24T16:47:49.650Z,1017.28
2023-05-24T16:48:49.581Z,1017.30
2023-05-24T16:49:49.531Z,1017.30
2023-05-24T16:50:49.528Z,1017.24
2023-05-24T16:51:49.527Z,1017.26